sensor_id;sensor_type;location;lat;lon;timestamp;P1;durP1;ratioP1;P2;durP2;ratioP2
12601;SDS011;30282;16.436;99.370;2023-04-16T00:01:43;161.27;;;124.70;;
12601;SDS011;30282;16.436;99.370;2023-04-16T00:04:14;160.97;;;125.00;;
12601;SDS011;30282;16.436;99.370;2023-04-16T00:06:43;171.03;;;123.90;;
12601;SDS011;30282;16.436;99.370;2023-04-16T00:09:12;154.73;;;121.37;;
12601;SDS011;30282;16.436;99.370;2023-04-16T00:11:44;166.43;;;129.47;;
12601;SDS011;30282;16.436;99.370;2023-04-16T00:14:13;171.27;;;134.37;;
12601;SDS011;30282;16.436;99.370;2023-04-16T00:16:42;171.17;;;129.17;;
12601;SDS011;30282;16.436;99.370;2023-04-16T00:19:13;150.83;;;123.20;;
12601;SDS011;30282;16.436;99.370;2023-04-16T00:21:42;163.07;;;127.93;;
12601;SDS011;30282;16.436;99.370;2023-04-16T00:24:11;154.20;;;119.47;;
12601;SDS011;30282;16.436;99.370;2023-04-16T00:26:40;140.43;;;112.83;;
12601;SDS011;30282;16.436;99.370;2023-04-16T00:29:19;139.80;;;103.70;;
12601;SDS011;30282;16.436;99.370;2023-04-16T00:31:48;138.53;;;94.93;;
12601;SDS011;30282;16.436;99.370;2023-04-16T00:34:19;114.67;;;87.70;;
12601;SDS011;30282;16.436;99.370;2023-04-16T00:36:48;107.20;;;83.73;;
12601;SDS011;30282;16.436;99.370;2023-04-16T00:39:17;85.57;;;69.70;;
12601;SDS011;30282;16.436;99.370;2023-04-16T00:41:46;84.67;;;68.90;;
12601;SDS011;30282;16.436;99.370;2023-04-16T00:44:15;86.07;;;66.50;;
12601;SDS011;30282;16.436;99.370;2023-04-16T00:46:44;94.47;;;68.70;;
12601;SDS011;30282;16.436;99.370;2023-04-16T00:49:13;100.03;;;68.70;;
12601;SDS011;30282;16.436;99.370;2023-04-16T00:51:44;89.80;;;66.10;;
12601;SDS011;30282;16.436;99.370;2023-04-16T00:54:14;96.20;;;65.87;;
12601;SDS011;30282;16.436;99.370;2023-04-16T00:56:43;86.53;;;64.10;;
12601;SDS011;30282;16.436;99.370;2023-04-16T00:59:12;94.37;;;63.00;;
12601;SDS011;30282;16.436;99.370;2023-04-16T01:01:42;79.70;;;59.67;;
12601;SDS011;30282;16.436;99.370;2023-04-16T01:04:11;80.23;;;61.50;;
12601;SDS011;30282;16.436;99.370;2023-04-16T01:06:40;72.90;;;58.00;;
12601;SDS011;30282;16.436;99.370;2023-04-16T01:09:11;84.00;;;59.63;;
12601;SDS011;30282;16.436;99.370;2023-04-16T01:11:40;88.07;;;61.50;;
12601;SDS011;30282;16.436;99.370;2023-04-16T01:14:09;78.10;;;59.50;;
12601;SDS011;30282;16.436;99.370;2023-04-16T01:16:38;78.73;;;61.50;;
12601;SDS011;30282;16.436;99.370;2023-04-16T01:19:10;71.80;;;58.30;;
12601;SDS011;30282;16.436;99.370;2023-04-16T01:21:41;79.27;;;60.80;;
12601;SDS011;30282;16.436;99.370;2023-04-16T01:24:10;73.90;;;58.30;;
12601;SDS011;30282;16.436;99.370;2023-04-16T01:26:39;81.70;;;60.00;;
12601;SDS011;30282;16.436;99.370;2023-04-16T01:29:08;78.60;;;58.03;;
12601;SDS011;30282;16.436;99.370;2023-04-16T01:31:37;78.13;;;59.40;;
12601;SDS011;30282;16.436;99.370;2023-04-16T01:34:06;77.47;;;58.23;;
12601;SDS011;30282;16.436;99.370;2023-04-16T01:36:35;69.27;;;58.50;;
12601;SDS011;30282;16.436;99.370;2023-04-16T01:39:06;88.07;;;55.60;;
12601;SDS011;30282;16.436;99.370;2023-04-16T01:41:40;72.43;;;56.13;;
12601;SDS011;30282;16.436;99.370;2023-04-16T01:44:09;64.07;;;56.90;;
12601;SDS011;30282;16.436;99.370;2023-04-16T01:46:38;73.67;;;55.23;;
12601;SDS011;30282;16.436;99.370;2023-04-16T01:49:07;74.43;;;53.70;;
12601;SDS011;30282;16.436;99.370;2023-04-16T01:51:37;62.47;;;54.13;;
12601;SDS011;30282;16.436;99.370;2023-04-16T01:54:08;83.07;;;56.93;;
12601;SDS011;30282;16.436;99.370;2023-04-16T01:56:37;77.43;;;53.83;;
12601;SDS011;30282;16.436;99.370;2023-04-16T01:59:09;68.03;;;55.40;;
12601;SDS011;30282;16.436;99.370;2023-04-16T02:01:41;70.57;;;55.10;;
12601;SDS011;30282;16.436;99.370;2023-04-16T02:04:10;61.03;;;54.37;;
12601;SDS011;30282;16.436;99.370;2023-04-16T02:06:40;67.97;;;54.80;;
12601;SDS011;30282;16.436;99.370;2023-04-16T02:09:11;93.83;;;55.17;;
12601;SDS011;30282;16.436;99.370;2023-04-16T02:11:40;73.77;;;54.47;;
12601;SDS011;30282;16.436;99.370;2023-04-16T02:14:09;69.03;;;55.60;;
12601;SDS011;30282;16.436;99.370;2023-04-16T02:16:38;72.37;;;51.97;;
12601;SDS011;30282;16.436;99.370;2023-04-16T02:19:15;70.70;;;56.90;;
12601;SDS011;30282;16.436;99.370;2023-04-16T02:21:44;71.83;;;52.83;;
12601;SDS011;30282;16.436;99.370;2023-04-16T02:24:17;66.17;;;54.00;;
12601;SDS011;30282;16.436;99.370;2023-04-16T02:26:46;67.53;;;54.37;;
12601;SDS011;30282;16.436;99.370;2023-04-16T02:29:15;82.63;;;56.40;;
12601;SDS011;30282;16.436;99.370;2023-04-16T02:31:44;65.40;;;53.57;;
12601;SDS011;30282;16.436;99.370;2023-04-16T02:34:13;68.97;;;55.47;;
12601;SDS011;30282;16.436;99.370;2023-04-16T02:36:47;64.80;;;56.63;;
12601;SDS011;30282;16.436;99.370;2023-04-16T02:39:25;67.17;;;54.17;;
12601;SDS011;30282;16.436;99.370;2023-04-16T02:41:54;96.27;;;59.77;;
12601;SDS011;30282;16.436;99.370;2023-04-16T02:44:24;76.80;;;55.80;;
12601;SDS011;30282;16.436;99.370;2023-04-16T02:46:53;69.87;;;55.47;;
12601;SDS011;30282;16.436;99.370;2023-04-16T02:49:22;83.27;;;58.80;;
12601;SDS011;30282;16.436;99.370;2023-04-16T02:51:51;72.20;;;56.17;;
12601;SDS011;30282;16.436;99.370;2023-04-16T02:54:20;67.50;;;57.20;;
12601;SDS011;30282;16.436;99.370;2023-04-16T02:56:51;85.70;;;58.97;;
12601;SDS011;30282;16.436;99.370;2023-04-16T02:59:20;69.23;;;56.90;;
12601;SDS011;30282;16.436;99.370;2023-04-16T03:01:49;66.33;;;57.90;;
12601;SDS011;30282;16.436;99.370;2023-04-16T03:04:18;76.10;;;57.70;;
12601;SDS011;30282;16.436;99.370;2023-04-16T03:06:47;69.73;;;58.93;;
12601;SDS011;30282;16.436;99.370;2023-04-16T03:09:16;76.17;;;59.73;;
12601;SDS011;30282;16.436;99.370;2023-04-16T03:11:45;67.63;;;55.90;;
12601;SDS011;30282;16.436;99.370;2023-04-16T03:14:16;77.93;;;57.33;;
12601;SDS011;30282;16.436;99.370;2023-04-16T03:16:50;80.70;;;57.80;;
12601;SDS011;30282;16.436;99.370;2023-04-16T03:19:21;65.93;;;56.63;;
12601;SDS011;30282;16.436;99.370;2023-04-16T03:21:50;70.00;;;55.80;;
12601;SDS011;30282;16.436;99.370;2023-04-16T03:24:19;68.47;;;57.80;;
12601;SDS011;30282;16.436;99.370;2023-04-16T03:26:48;64.07;;;56.00;;
12601;SDS011;30282;16.436;99.370;2023-04-16T03:29:21;65.20;;;56.13;;
12601;SDS011;30282;16.436;99.370;2023-04-16T03:31:51;77.60;;;57.50;;
12601;SDS011;30282;16.436;99.370;2023-04-16T03:34:20;71.50;;;59.57;;
12601;SDS011;30282;16.436;99.370;2023-04-16T03:36:51;75.83;;;57.23;;
12601;SDS011;30282;16.436;99.370;2023-04-16T03:39:20;69.50;;;58.07;;
12601;SDS011;30282;16.436;99.370;2023-04-16T03:41:52;83.73;;;59.53;;
12601;SDS011;30282;16.436;99.370;2023-04-16T03:44:22;71.83;;;54.47;;
12601;SDS011;30282;16.436;99.370;2023-04-16T03:46:51;72.83;;;54.50;;
12601;SDS011;30282;16.436;99.370;2023-04-16T03:49:21;70.23;;;55.13;;
12601;SDS011;30282;16.436;99.370;2023-04-16T03:51:50;86.07;;;57.37;;
12601;SDS011;30282;16.436;99.370;2023-04-16T03:54:19;71.70;;;55.07;;
12601;SDS011;30282;16.436;99.370;2023-04-16T03:56:48;68.00;;;57.23;;
12601;SDS011;30282;16.436;99.370;2023-04-16T03:59:18;74.53;;;56.20;;
12601;SDS011;30282;16.436;99.370;2023-04-16T04:01:49;75.47;;;58.63;;
12601;SDS011;30282;16.436;99.370;2023-04-16T04:04:18;76.20;;;58.87;;
12601;SDS011;30282;16.436;99.370;2023-04-16T04:06:47;76.03;;;59.47;;
12601;SDS011;30282;16.436;99.370;2023-04-16T04:09:16;79.90;;;58.23;;
12601;SDS011;30282;16.436;99.370;2023-04-16T04:11:46;76.10;;;61.17;;
12601;SDS011;30282;16.436;99.370;2023-04-16T04:14:15;75.80;;;60.27;;
12601;SDS011;30282;16.436;99.370;2023-04-16T04:16:44;75.50;;;60.60;;
12601;SDS011;30282;16.436;99.370;2023-04-16T04:19:15;77.50;;;61.40;;
12601;SDS011;30282;16.436;99.370;2023-04-16T04:21:44;88.73;;;61.10;;
12601;SDS011;30282;16.436;99.370;2023-04-16T04:24:14;75.77;;;62.70;;
12601;SDS011;30282;16.436;99.370;2023-04-16T04:26:43;79.27;;;62.70;;
12601;SDS011;30282;16.436;99.370;2023-04-16T04:29:12;77.53;;;63.37;;
12601;SDS011;30282;16.436;99.370;2023-04-16T04:31:41;80.50;;;61.73;;
12601;SDS011;30282;16.436;99.370;2023-04-16T04:34:10;72.83;;;61.57;;
12601;SDS011;30282;16.436;99.370;2023-04-16T04:36:41;70.93;;;62.83;;
12601;SDS011;30282;16.436;99.370;2023-04-16T04:39:10;88.87;;;67.70;;
12601;SDS011;30282;16.436;99.370;2023-04-16T04:41:39;84.57;;;65.33;;
12601;SDS011;30282;16.436;99.370;2023-04-16T04:44:08;91.90;;;66.00;;
12601;SDS011;30282;16.436;99.370;2023-04-16T04:46:37;82.17;;;67.80;;
12601;SDS011;30282;16.436;99.370;2023-04-16T04:49:06;75.20;;;63.90;;
12601;SDS011;30282;16.436;99.370;2023-04-16T04:51:35;83.17;;;67.00;;
12601;SDS011;30282;16.436;99.370;2023-04-16T04:54:06;82.63;;;64.77;;
12601;SDS011;30282;16.436;99.370;2023-04-16T04:56:35;86.10;;;64.77;;
12601;SDS011;30282;16.436;99.370;2023-04-16T04:59:04;70.67;;;61.50;;
12601;SDS011;30282;16.436;99.370;2023-04-16T05:01:33;75.80;;;61.43;;
12601;SDS011;30282;16.436;99.370;2023-04-16T05:04:03;72.63;;;60.37;;
12601;SDS011;30282;16.436;99.370;2023-04-16T05:06:32;78.77;;;63.63;;
12601;SDS011;30282;16.436;99.370;2023-04-16T05:09:01;76.13;;;58.67;;
12601;SDS011;30282;16.436;99.370;2023-04-16T05:11:32;84.00;;;64.67;;
12601;SDS011;30282;16.436;99.370;2023-04-16T05:14:01;76.43;;;64.73;;
12601;SDS011;30282;16.436;99.370;2023-04-16T05:16:31;73.33;;;62.93;;
12601;SDS011;30282;16.436;99.370;2023-04-16T05:19:02;73.43;;;63.90;;
12601;SDS011;30282;16.436;99.370;2023-04-16T05:21:32;84.60;;;71.17;;
12601;SDS011;30282;16.436;99.370;2023-04-16T05:24:02;74.77;;;66.77;;
12601;SDS011;30282;16.436;99.370;2023-04-16T05:26:33;82.33;;;66.67;;
12601;SDS011;30282;16.436;99.370;2023-04-16T05:29:02;81.50;;;66.37;;
12601;SDS011;30282;16.436;99.370;2023-04-16T05:31:31;79.03;;;64.13;;
12601;SDS011;30282;16.436;99.370;2023-04-16T05:34:00;78.40;;;64.80;;
12601;SDS011;30282;16.436;99.370;2023-04-16T05:36:29;80.30;;;67.53;;
12601;SDS011;30282;16.436;99.370;2023-04-16T05:38:58;70.47;;;62.93;;
12601;SDS011;30282;16.436;99.370;2023-04-16T05:41:27;66.87;;;59.53;;
12601;SDS011;30282;16.436;99.370;2023-04-16T05:43:58;80.83;;;67.07;;
12601;SDS011;30282;16.436;99.370;2023-04-16T05:46:27;79.20;;;66.40;;
12601;SDS011;30282;16.436;99.370;2023-04-16T05:48:56;79.73;;;64.47;;
12601;SDS011;30282;16.436;99.370;2023-04-16T05:51:25;73.17;;;65.20;;
12601;SDS011;30282;16.436;99.370;2023-04-16T05:53:54;76.33;;;64.77;;
12601;SDS011;30282;16.436;99.370;2023-04-16T05:56:23;78.73;;;70.13;;
12601;SDS011;30282;16.436;99.370;2023-04-16T05:58:52;83.33;;;65.90;;
12601;SDS011;30282;16.436;99.370;2023-04-16T06:01:23;73.63;;;62.77;;
12601;SDS011;30282;16.436;99.370;2023-04-16T06:03:52;77.60;;;64.13;;
12601;SDS011;30282;16.436;99.370;2023-04-16T06:06:21;76.93;;;68.67;;
12601;SDS011;30282;16.436;99.370;2023-04-16T06:08:52;95.00;;;62.47;;
12601;SDS011;30282;16.436;99.370;2023-04-16T06:11:21;77.93;;;65.83;;
12601;SDS011;30282;16.436;99.370;2023-04-16T06:13:50;79.67;;;67.60;;
12601;SDS011;30282;16.436;99.370;2023-04-16T06:16:24;72.77;;;65.37;;
12601;SDS011;30282;16.436;99.370;2023-04-16T06:18:53;85.63;;;66.87;;
12601;SDS011;30282;16.436;99.370;2023-04-16T06:21:22;76.30;;;67.53;;
12601;SDS011;30282;16.436;99.370;2023-04-16T06:23:51;74.47;;;65.77;;
12601;SDS011;30282;16.436;99.370;2023-04-16T06:26:21;82.67;;;64.40;;
12601;SDS011;30282;16.436;99.370;2023-04-16T06:29:02;73.17;;;64.20;;
12601;SDS011;30282;16.436;99.370;2023-04-16T06:31:35;78.07;;;70.10;;
12601;SDS011;30282;16.436;99.370;2023-04-16T06:34:04;72.50;;;64.90;;
12601;SDS011;30282;16.436;99.370;2023-04-16T06:36:33;73.20;;;64.53;;
12601;SDS011;30282;16.436;99.370;2023-04-16T06:39:03;73.63;;;65.90;;
12601;SDS011;30282;16.436;99.370;2023-04-16T06:41:32;76.10;;;66.30;;
12601;SDS011;30282;16.436;99.370;2023-04-16T06:44:01;79.07;;;69.10;;
12601;SDS011;30282;16.436;99.370;2023-04-16T06:46:30;77.77;;;69.30;;
12601;SDS011;30282;16.436;99.370;2023-04-16T06:49:01;78.70;;;68.90;;
12601;SDS011;30282;16.436;99.370;2023-04-16T06:51:30;80.27;;;71.47;;
12601;SDS011;30282;16.436;99.370;2023-04-16T06:53:59;77.37;;;69.93;;
12601;SDS011;30282;16.436;99.370;2023-04-16T06:56:28;77.97;;;69.83;;
12601;SDS011;30282;16.436;99.370;2023-04-16T06:58:58;80.00;;;70.50;;
12601;SDS011;30282;16.436;99.370;2023-04-16T07:01:27;81.50;;;70.97;;
12601;SDS011;30282;16.436;99.370;2023-04-16T07:03:56;77.73;;;68.00;;
12601;SDS011;30282;16.436;99.370;2023-04-16T07:06:27;80.37;;;68.37;;
12601;SDS011;30282;16.436;99.370;2023-04-16T07:08:56;75.43;;;67.10;;
12601;SDS011;30282;16.436;99.370;2023-04-16T07:11:25;80.20;;;70.00;;
12601;SDS011;30282;16.436;99.370;2023-04-16T07:13:54;77.57;;;69.37;;
12601;SDS011;30282;16.436;99.370;2023-04-16T07:16:24;77.10;;;69.10;;
12601;SDS011;30282;16.436;99.370;2023-04-16T07:18:53;77.90;;;66.17;;
12601;SDS011;30282;16.436;99.370;2023-04-16T07:21:22;77.43;;;68.90;;
12601;SDS011;30282;16.436;99.370;2023-04-16T07:23:52;80.67;;;66.27;;
12601;SDS011;30282;16.436;99.370;2023-04-16T07:26:22;77.70;;;67.70;;
12601;SDS011;30282;16.436;99.370;2023-04-16T07:28:51;74.53;;;66.43;;
12601;SDS011;30282;16.436;99.370;2023-04-16T07:31:20;77.77;;;69.70;;
12601;SDS011;30282;16.436;99.370;2023-04-16T07:33:49;80.27;;;71.57;;
12601;SDS011;30282;16.436;99.370;2023-04-16T07:36:27;77.43;;;69.10;;
12601;SDS011;30282;16.436;99.370;2023-04-16T07:39:00;76.53;;;68.17;;
12601;SDS011;30282;16.436;99.370;2023-04-16T07:41:29;77.70;;;69.27;;
12601;SDS011;30282;16.436;99.370;2023-04-16T07:43:58;75.67;;;68.07;;
12601;SDS011;30282;16.436;99.370;2023-04-16T07:46:27;82.70;;;68.23;;
12601;SDS011;30282;16.436;99.370;2023-04-16T07:48:57;81.90;;;66.83;;
12601;SDS011;30282;16.436;99.370;2023-04-16T07:51:26;74.23;;;65.70;;
12601;SDS011;30282;16.436;99.370;2023-04-16T07:53:55;70.73;;;63.30;;
12601;SDS011;30282;16.436;99.370;2023-04-16T07:56:25;75.73;;;67.70;;
12601;SDS011;30282;16.436;99.370;2023-04-16T07:58:54;93.07;;;70.77;;
12601;SDS011;30282;16.436;99.370;2023-04-16T08:01:23;82.00;;;71.90;;
12601;SDS011;30282;16.436;99.370;2023-04-16T08:03:53;76.13;;;68.20;;
12601;SDS011;30282;16.436;99.370;2023-04-16T08:06:25;78.30;;;68.30;;
12601;SDS011;30282;16.436;99.370;2023-04-16T08:08:54;83.37;;;69.37;;
12601;SDS011;30282;16.436;99.370;2023-04-16T08:11:25;73.80;;;66.20;;
12601;SDS011;30282;16.436;99.370;2023-04-16T08:13:54;87.13;;;72.57;;
12601;SDS011;30282;16.436;99.370;2023-04-16T08:16:26;79.07;;;70.53;;
12601;SDS011;30282;16.436;99.370;2023-04-16T08:18:55;80.50;;;71.93;;
12601;SDS011;30282;16.436;99.370;2023-04-16T08:21:25;138.13;;;75.20;;
12601;SDS011;30282;16.436;99.370;2023-04-16T08:23:55;81.00;;;72.40;;
12601;SDS011;30282;16.436;99.370;2023-04-16T08:26:26;84.77;;;74.13;;
12601;SDS011;30282;16.436;99.370;2023-04-16T08:28:55;80.67;;;72.27;;
12601;SDS011;30282;16.436;99.370;2023-04-16T08:31:24;80.50;;;70.87;;
12601;SDS011;30282;16.436;99.370;2023-04-16T08:33:53;102.77;;;77.03;;
12601;SDS011;30282;16.436;99.370;2023-04-16T08:36:22;83.00;;;70.60;;
12601;SDS011;30282;16.436;99.370;2023-04-16T08:38:51;84.77;;;75.07;;
12601;SDS011;30282;16.436;99.370;2023-04-16T08:41:20;92.63;;;72.83;;
12601;SDS011;30282;16.436;99.370;2023-04-16T08:43:52;90.20;;;75.07;;
12601;SDS011;30282;16.436;99.370;2023-04-16T08:46:24;85.73;;;76.80;;
12601;SDS011;30282;16.436;99.370;2023-04-16T08:48:53;81.20;;;73.00;;
12601;SDS011;30282;16.436;99.370;2023-04-16T08:51:28;84.50;;;75.63;;
12601;SDS011;30282;16.436;99.370;2023-04-16T08:54:02;81.73;;;73.00;;
12601;SDS011;30282;16.436;99.370;2023-04-16T08:56:31;85.53;;;76.43;;
12601;SDS011;30282;16.436;99.370;2023-04-16T08:59:05;85.97;;;76.43;;
12601;SDS011;30282;16.436;99.370;2023-04-16T09:01:36;84.23;;;75.23;;
12601;SDS011;30282;16.436;99.370;2023-04-16T09:04:06;84.47;;;75.70;;
12601;SDS011;30282;16.436;99.370;2023-04-16T09:06:35;87.23;;;77.27;;
12601;SDS011;30282;16.436;99.370;2023-04-16T09:09:06;85.77;;;76.60;;
12601;SDS011;30282;16.436;99.370;2023-04-16T09:11:37;97.97;;;77.23;;
12601;SDS011;30282;16.436;99.370;2023-04-16T09:14:09;84.40;;;75.60;;
12601;SDS011;30282;16.436;99.370;2023-04-16T09:16:39;86.83;;;77.00;;
12601;SDS011;30282;16.436;99.370;2023-04-16T09:19:08;81.73;;;73.07;;
12601;SDS011;30282;16.436;99.370;2023-04-16T09:21:37;91.17;;;81.37;;
12601;SDS011;30282;16.436;99.370;2023-04-16T09:24:08;93.23;;;77.47;;
12601;SDS011;30282;16.436;99.370;2023-04-16T09:26:38;89.07;;;80.03;;
12601;SDS011;30282;16.436;99.370;2023-04-16T09:29:11;86.60;;;77.77;;
12601;SDS011;30282;16.436;99.370;2023-04-16T09:32:01;103.10;;;81.53;;
12601;SDS011;30282;16.436;99.370;2023-04-16T09:34:32;91.53;;;81.43;;
12601;SDS011;30282;16.436;99.370;2023-04-16T09:37:13;101.77;;;83.27;;
12601;SDS011;30282;16.436;99.370;2023-04-16T09:39:42;94.63;;;79.70;;
12601;SDS011;30282;16.436;99.370;2023-04-16T09:42:12;91.47;;;81.37;;
12601;SDS011;30282;16.436;99.370;2023-04-16T09:44:43;100.93;;;88.23;;
12601;SDS011;30282;16.436;99.370;2023-04-16T09:47:16;100.47;;;83.53;;
12601;SDS011;30282;16.436;99.370;2023-04-16T09:49:45;94.80;;;80.17;;
12601;SDS011;30282;16.436;99.370;2023-04-16T09:52:14;91.57;;;82.03;;
12601;SDS011;30282;16.436;99.370;2023-04-16T09:54:47;98.00;;;87.80;;
12601;SDS011;30282;16.436;99.370;2023-04-16T09:57:17;108.67;;;92.90;;
12601;SDS011;30282;16.436;99.370;2023-04-16T09:59:53;120.90;;;107.70;;
12601;SDS011;30282;16.436;99.370;2023-04-16T10:02:27;96.07;;;86.03;;
12601;SDS011;30282;16.436;99.370;2023-04-16T10:04:57;98.57;;;84.03;;
12601;SDS011;30282;16.436;99.370;2023-04-16T10:07:30;102.63;;;88.80;;
12601;SDS011;30282;16.436;99.370;2023-04-16T10:10:01;97.97;;;87.93;;
12601;SDS011;30282;16.436;99.370;2023-04-16T10:12:31;101.23;;;87.23;;
12601;SDS011;30282;16.436;99.370;2023-04-16T10:15:02;103.63;;;87.67;;
12601;SDS011;30282;16.436;99.370;2023-04-16T10:17:32;107.50;;;86.90;;
12601;SDS011;30282;16.436;99.370;2023-04-16T10:20:02;95.07;;;84.70;;
12601;SDS011;30282;16.436;99.370;2023-04-16T10:22:32;99.97;;;88.80;;
12601;SDS011;30282;16.436;99.370;2023-04-16T10:25:01;101.93;;;90.87;;
12601;SDS011;30282;16.436;99.370;2023-04-16T10:27:31;111.10;;;87.40;;
12601;SDS011;30282;16.436;99.370;2023-04-16T10:30:03;101.33;;;90.73;;
12601;SDS011;30282;16.436;99.370;2023-04-16T10:32:34;101.90;;;90.47;;
12601;SDS011;30282;16.436;99.370;2023-04-16T10:35:04;103.73;;;92.70;;
12601;SDS011;30282;16.436;99.370;2023-04-16T10:37:35;103.33;;;91.20;;
12601;SDS011;30282;16.436;99.370;2023-04-16T10:40:20;100.00;;;89.37;;
12601;SDS011;30282;16.436;99.370;2023-04-16T10:42:54;98.90;;;88.20;;
12601;SDS011;30282;16.436;99.370;2023-04-16T10:45:33;104.80;;;93.30;;
12601;SDS011;30282;16.436;99.370;2023-04-16T10:48:05;105.87;;;94.40;;
12601;SDS011;30282;16.436;99.370;2023-04-16T10:50:35;109.30;;;96.43;;
12601;SDS011;30282;16.436;99.370;2023-04-16T10:53:17;108.17;;;95.47;;
12601;SDS011;30282;16.436;99.370;2023-04-16T10:55:57;112.03;;;99.87;;
12601;SDS011;30282;16.436;99.370;2023-04-16T10:58:37;122.60;;;106.33;;
12601;SDS011;30282;16.436;99.370;2023-04-16T11:01:09;120.47;;;106.70;;
12601;SDS011;30282;16.436;99.370;2023-04-16T11:03:41;119.43;;;106.80;;
12601;SDS011;30282;16.436;99.370;2023-04-16T11:06:13;142.50;;;112.97;;
12601;SDS011;30282;16.436;99.370;2023-04-16T11:08:43;133.80;;;112.97;;
12601;SDS011;30282;16.436;99.370;2023-04-16T11:11:13;126.53;;;107.33;;
12601;SDS011;30282;16.436;99.370;2023-04-16T11:13:42;112.33;;;99.67;;
12601;SDS011;30282;16.436;99.370;2023-04-16T11:16:14;119.77;;;107.00;;
12601;SDS011;30282;16.436;99.370;2023-04-16T11:18:44;127.17;;;109.73;;
12601;SDS011;30282;16.436;99.370;2023-04-16T11:21:13;120.10;;;101.13;;
12601;SDS011;30282;16.436;99.370;2023-04-16T11:23:46;119.40;;;101.20;;
12601;SDS011;30282;16.436;99.370;2023-04-16T11:26:22;109.77;;;97.80;;
12601;SDS011;30282;16.436;99.370;2023-04-16T11:28:53;120.83;;;99.47;;
12601;SDS011;30282;16.436;99.370;2023-04-16T11:31:24;121.83;;;101.20;;
12601;SDS011;30282;16.436;99.370;2023-04-16T11:33:54;107.43;;;95.73;;
12601;SDS011;30282;16.436;99.370;2023-04-16T11:36:24;114.70;;;95.77;;
12601;SDS011;30282;16.436;99.370;2023-04-16T11:39:00;111.97;;;100.10;;
12601;SDS011;30282;16.436;99.370;2023-04-16T11:41:29;107.40;;;96.20;;
12601;SDS011;30282;16.436;99.370;2023-04-16T11:43:58;113.63;;;101.43;;
12601;SDS011;30282;16.436;99.370;2023-04-16T11:46:45;115.33;;;102.67;;
12601;SDS011;30282;16.436;99.370;2023-04-16T11:49:14;109.23;;;97.97;;
12601;SDS011;30282;16.436;99.370;2023-04-16T11:51:44;128.97;;;105.60;;
12601;SDS011;30282;16.436;99.370;2023-04-16T11:54:17;110.40;;;98.30;;
12601;SDS011;30282;16.436;99.370;2023-04-16T11:56:47;126.07;;;101.63;;
12601;SDS011;30282;16.436;99.370;2023-04-16T11:59:18;114.43;;;102.20;;
12601;SDS011;30282;16.436;99.370;2023-04-16T12:01:50;111.87;;;99.17;;
12601;SDS011;30282;16.436;99.370;2023-04-16T12:04:20;115.47;;;96.20;;
12601;SDS011;30282;16.436;99.370;2023-04-16T12:07:03;120.23;;;103.40;;
12601;SDS011;30282;16.436;99.370;2023-04-16T12:09:33;106.77;;;95.20;;
12601;SDS011;30282;16.436;99.370;2023-04-16T12:12:03;117.47;;;100.00;;
12601;SDS011;30282;16.436;99.370;2023-04-16T12:14:33;117.70;;;102.90;;
12601;SDS011;30282;16.436;99.370;2023-04-16T12:17:19;106.13;;;94.43;;
12601;SDS011;30282;16.436;99.370;2023-04-16T12:19:49;120.10;;;92.20;;
12601;SDS011;30282;16.436;99.370;2023-04-16T12:22:25;107.10;;;93.87;;
12601;SDS011;30282;16.436;99.370;2023-04-16T12:24:59;123.07;;;95.53;;
12601;SDS011;30282;16.436;99.370;2023-04-16T12:27:42;112.13;;;93.10;;
12601;SDS011;30282;16.436;99.370;2023-04-16T12:30:13;107.43;;;92.13;;
12601;SDS011;30282;16.436;99.370;2023-04-16T12:32:46;113.83;;;96.90;;
12601;SDS011;30282;16.436;99.370;2023-04-16T12:35:28;108.30;;;94.90;;
12601;SDS011;30282;16.436;99.370;2023-04-16T12:38:08;115.53;;;92.90;;
12601;SDS011;30282;16.436;99.370;2023-04-16T12:40:40;109.17;;;89.83;;
12601;SDS011;30282;16.436;99.370;2023-04-16T12:43:09;102.87;;;91.77;;
12601;SDS011;30282;16.436;99.370;2023-04-16T12:45:38;104.10;;;92.20;;
12601;SDS011;30282;16.436;99.370;2023-04-16T12:48:09;105.83;;;91.00;;
12601;SDS011;30282;16.436;99.370;2023-04-16T12:50:38;101.33;;;89.77;;
12601;SDS011;30282;16.436;99.370;2023-04-16T12:53:08;113.50;;;93.43;;
12601;SDS011;30282;16.436;99.370;2023-04-16T12:55:41;106.77;;;90.03;;
12601;SDS011;30282;16.436;99.370;2023-04-16T12:58:18;97.10;;;86.60;;
12601;SDS011;30282;16.436;99.370;2023-04-16T13:00:50;103.53;;;88.60;;
12601;SDS011;30282;16.436;99.370;2023-04-16T13:03:23;108.10;;;88.50;;
12601;SDS011;30282;16.436;99.370;2023-04-16T13:05:55;99.67;;;85.57;;
12601;SDS011;30282;16.436;99.370;2023-04-16T13:08:26;100.33;;;85.47;;
12601;SDS011;30282;16.436;99.370;2023-04-16T13:11:04;115.30;;;87.80;;
12601;SDS011;30282;16.436;99.370;2023-04-16T13:13:33;98.67;;;87.60;;
12601;SDS011;30282;16.436;99.370;2023-04-16T13:16:05;102.33;;;84.47;;
12601;SDS011;30282;16.436;99.370;2023-04-16T13:18:51;95.30;;;83.77;;
12601;SDS011;30282;16.436;99.370;2023-04-16T13:21:25;98.90;;;84.50;;
12601;SDS011;30282;16.436;99.370;2023-04-16T13:23:54;98.97;;;84.83;;
12601;SDS011;30282;16.436;99.370;2023-04-16T13:26:26;107.80;;;82.83;;
12601;SDS011;30282;16.436;99.370;2023-04-16T13:29:07;103.50;;;88.43;;
12601;SDS011;30282;16.436;99.370;2023-04-16T13:31:42;98.13;;;86.27;;
12601;SDS011;30282;16.436;99.370;2023-04-16T13:34:20;107.10;;;87.50;;
12601;SDS011;30282;16.436;99.370;2023-04-16T13:36:50;116.07;;;87.90;;
12601;SDS011;30282;16.436;99.370;2023-04-16T13:39:33;119.53;;;89.30;;
12601;SDS011;30282;16.436;99.370;2023-04-16T13:42:05;100.73;;;85.80;;
12601;SDS011;30282;16.436;99.370;2023-04-16T13:44:34;96.00;;;84.83;;
12601;SDS011;30282;16.436;99.370;2023-04-16T13:47:06;97.47;;;80.57;;
12601;SDS011;30282;16.436;99.370;2023-04-16T13:49:37;97.10;;;81.93;;
12601;SDS011;30282;16.436;99.370;2023-04-16T13:52:06;106.17;;;83.70;;
12601;SDS011;30282;16.436;99.370;2023-04-16T13:54:47;100.83;;;79.90;;
12601;SDS011;30282;16.436;99.370;2023-04-16T13:57:16;105.63;;;81.47;;
12601;SDS011;30282;16.436;99.370;2023-04-16T13:59:58;95.33;;;82.20;;
12601;SDS011;30282;16.436;99.370;2023-04-16T14:02:39;93.27;;;79.70;;
12601;SDS011;30282;16.436;99.370;2023-04-16T14:05:24;97.23;;;85.07;;
12601;SDS011;30282;16.436;99.370;2023-04-16T14:08:01;98.13;;;78.13;;
12601;SDS011;30282;16.436;99.370;2023-04-16T14:10:32;97.43;;;80.60;;
12601;SDS011;30282;16.436;99.370;2023-04-16T14:13:03;91.80;;;73.97;;
12601;SDS011;30282;16.436;99.370;2023-04-16T14:15:32;112.43;;;94.40;;
12601;SDS011;30282;16.436;99.370;2023-04-16T14:18:01;127.77;;;96.83;;
12601;SDS011;30282;16.436;99.370;2023-04-16T14:20:32;119.50;;;92.73;;
12601;SDS011;30282;16.436;99.370;2023-04-16T14:23:01;128.23;;;103.47;;
12601;SDS011;30282;16.436;99.370;2023-04-16T14:25:36;91.67;;;77.00;;